Time;durP1;ratioP1;P1;durP2;ratioP2;P2;SDS_P1;SDS_P2;PMS_P1;PMS_P2;Temp;Humidity;BMP_temperature;BMP_pressure;BME280_temperature;BME280_humidity;BME280_pressure;Samples;Min_cycle;Max_cycle;Signal;HPM_P1;HPM_P2
2021/03/17 00:00:33;;;;;;;4.88;3.65;;;5.40;98.00;;;;;;5065445;28;20063;-36
2021/03/17 00:02:59;;;;;;;3.80;3.38;;;5.30;98.00;;;;;;5065811;28;20455;-36
2021/03/17 00:05:30;;;;;;;4.10;3.70;;;5.40;98.10;;;;;;5064322;28;20025;-36
2021/03/17 00:07:56;;;;;;;4.68;3.47;;;5.30;98.00;;;;;;5062815;28;20104;-38
2021/03/17 00:10:26;;;;;;;5.00;3.92;;;5.30;98.00;;;;;;5065783;28;20558;-36
2021/03/17 00:12:53;;;;;;;6.72;4.28;;;5.20;98.00;;;;;;5064590;28;20036;-39
2021/03/17 00:15:21;;;;;;;5.85;3.90;;;5.10;98.00;;;;;;5065179;28;20067;-37
2021/03/17 00:17:46;;;;;;;4.47;3.90;;;5.10;98.10;;;;;;5065295;28;20399;-38
2021/03/17 00:20:16;;;;;;;4.57;3.97;;;5.00;98.20;;;;;;5064722;28;20032;-37
2021/03/17 00:22:41;;;;;;;5.30;4.10;;;5.00;98.30;;;;;;5064702;28;20556;-36
2021/03/17 00:25:08;;;;;;;5.30;4.57;;;5.00;98.30;;;;;;5064825;28;20048;-34
2021/03/17 00:27:34;;;;;;;4.20;3.80;;;4.90;98.40;;;;;;5064741;28;20016;-35
2021/03/17 00:30:00;;;;;;;4.65;4.18;;;5.00;98.50;;;;;;5065412;28;20443;-36
2021/03/17 00:32:27;;;;;;;6.75;5.03;;;5.00;98.50;;;;;;5064670;28;20340;-39
2021/03/17 00:34:53;;;;;;;6.10;5.10;;;5.00;98.60;;;;;;5064876;28;20540;-33
2021/03/17 00:37:18;;;;;;;5.60;4.43;;;5.00;98.50;;;;;;5064726;28;20077;-38
2021/03/17 00:39:44;;;;;;;5.68;4.40;;;5.00;98.60;;;;;;5064608;28;20096;-33
2021/03/17 00:42:10;;;;;;;5.10;4.53;;;5.00;98.50;;;;;;5064386;28;20035;-34
2021/03/17 00:44:36;;;;;;;6.25;4.18;;;5.00;98.60;;;;;;5064507;28;20075;-35
2021/03/17 00:47:02;;;;;;;6.78;4.63;;;5.00;98.60;;;;;;5064613;28;20491;-38
2021/03/17 00:49:28;;;;;;;7.03;5.20;;;5.00;98.60;;;;;;5064791;28;20024;-39
2021/03/17 00:51:53;;;;;;;5.85;4.93;;;5.00;98.70;;;;;;5065238;28;20048;-37
2021/03/17 00:54:19;;;;;;;5.07;4.43;;;5.00;98.60;;;;;;5063429;28;20127;-35
2021/03/17 00:56:44;;;;;;;4.78;4.30;;;5.00;98.70;;;;;;5064281;28;20021;-38
2021/03/17 00:59:10;;;;;;;4.72;4.15;;;5.00;98.60;;;;;;5064110;28;20032;-35
2021/03/17 01:01:38;;;;;;;6.40;4.32;;;5.00;98.70;;;;;;5064271;28;20024;-38
2021/03/17 01:04:04;;;;;;;6.28;5.22;;;5.00;98.60;;;;;;5064016;28;20125;-33
2021/03/17 01:06:29;;;;;;;5.75;4.95;;;5.00;98.60;;;;;;5064100;28;20029;-38
2021/03/17 01:08:55;;;;;;;5.72;4.65;;;5.10;98.70;;;;;;5064431;28;20027;-37
2021/03/17 01:11:20;;;;;;;5.03;4.53;;;5.10;98.70;;;;;;5064086;28;20020;-36
2021/03/17 01:13:46;;;;;;;4.18;3.78;;;5.10;98.60;;;;;;5063830;28;20087;-39
2021/03/17 01:16:12;;;;;;;4.82;4.15;;;5.10;98.60;;;;;;5064081;28;20527;-38
2021/03/17 01:18:37;;;;;;;3.88;3.58;;;5.20;98.60;;;;;;5063697;28;20417;-36
2021/03/17 01:21:06;;;;;;;4.70;4.28;;;5.20;98.50;;;;;;5063968;28;20052;-39
2021/03/17 01:23:32;;;;;;;4.65;4.25;;;5.20;98.40;;;;;;5063533;28;20032;-35
2021/03/17 01:25:57;;;;;;;5.38;4.57;;;5.20;98.40;;;;;;5064489;28;20055;-33
2021/03/17 01:28:23;;;;;;;5.00;4.40;;;5.30;98.40;;;;;;5063905;28;20040;-37
2021/03/17 01:30:53;;;;;;;4.35;3.83;;;5.20;98.40;;;;;;5063659;28;20464;-37
2021/03/17 01:33:19;;;;;;;5.43;4.30;;;5.20;98.40;;;;;;5064184;28;20036;-35
2021/03/17 01:35:47;;;;;;;4.90;4.30;;;5.20;98.40;;;;;;5063607;28;20431;-36
2021/03/17 01:38:13;;;;;;;5.18;3.97;;;5.30;98.40;;;;;;5063965;28;20158;-35
2021/03/17 01:40:41;;;;;;;4.13;3.75;;;5.30;98.40;;;;;;5063990;28;20533;-36
2021/03/17 01:43:10;;;;;;;4.30;3.90;;;5.30;98.40;;;;;;5043616;28;20571;-38
2021/03/17 01:45:36;;;;;;;4.20;3.80;;;5.20;98.40;;;;;;5058111;28;20556;-36
2021/03/17 01:48:02;;;;;;;4.07;3.67;;;5.20;98.40;;;;;;5064132;28;20115;-35
2021/03/17 01:50:30;;;;;;;4.20;3.80;;;5.20;98.50;;;;;;5063967;28;20027;-36
2021/03/17 01:53:05;;;;;;;4.85;4.00;;;5.20;98.60;;;;;;5063910;28;20056;-37
2021/03/17 01:55:31;;;;;;;4.72;4.18;;;5.10;98.70;;;;;;5063420;28;20028;-36
2021/03/17 01:57:56;;;;;;;5.05;4.45;;;5.10;98.70;;;;;;5063908;28;20380;-38
2021/03/17 02:00:22;;;;;;;5.03;4.15;;;5.10;98.70;;;;;;5063632;28;20028;-36
2021/03/17 02:02:51;;;;;;;5.45;4.95;;;5.20;98.90;;;;;;5063663;28;20024;-36
2021/03/17 02:05:20;;;;;;;5.75;4.50;;;5.10;98.90;;;;;;5063358;28;20082;-39
2021/03/17 02:07:45;;;;;;;5.15;4.60;;;5.10;98.80;;;;;;5063441;28;20028;-37
2021/03/17 02:10:15;;;;;;;4.90;4.40;;;5.10;98.90;;;;;;5065902;28;20115;-38
2021/03/17 02:13:04;;;;;;;6.10;5.28;;;5.20;98.90;;;;;;5067347;28;20417;-37
2021/03/17 02:15:48;;;;;;;4.80;4.30;;;5.20;99.00;;;;;;5067509;28;20016;-37
2021/03/17 02:18:30;;;;;;;4.88;4.38;;;5.20;99.00;;;;;;5058219;28;20042;-37
2021/03/17 02:21:34;;;;;;;4.90;4.40;;;5.20;99.00;;;;;;5067656;28;20021;-38
2021/03/17 02:24:18;;;;;;;4.93;4.28;;;5.20;98.90;;;;;;5067445;28;20089;-35
2021/03/17 02:27:13;;;;;;;5.00;4.50;;;5.20;98.90;;;;;;5067347;28;20106;-36
2021/03/17 02:30:24;;;;;;;5.72;4.60;;;5.30;99.10;;;;;;5047627;28;20047;-34
2021/03/17 02:33:33;;;;;;;6.28;4.47;;;5.30;98.70;;;;;;5066155;28;20068;-38
2021/03/17 02:36:05;;;;;;;4.68;4.28;;;5.40;98.70;;;;;;5042371;28;20109;-37
2021/03/17 02:38:31;;;;;;;5.30;4.80;;;5.40;98.70;;;;;;5066939;28;20233;-38
2021/03/17 02:41:00;;;;;;;5.28;4.78;;;5.40;98.60;;;;;;5066642;28;20025;-36
2021/03/17 02:43:31;;;;;;;5.32;4.82;;;5.40;98.60;;;;;;5066091;28;20559;-37
2021/03/17 02:46:06;;;;;;;5.35;4.70;;;5.40;98.60;;;;;;5066543;28;20322;-36
2021/03/17 02:48:45;;;;;;;6.00;5.40;;;5.50;98.60;;;;;;5063491;28;20025;-38
2021/03/17 02:51:30;;;;;;;5.45;4.93;;;5.50;98.80;;;;;;5066759;28;20024;-39
2021/03/17 02:53:57;;;;;;;6.07;4.85;;;5.40;98.80;;;;;;5064389;28;20063;-32
2021/03/17 02:56:24;;;;;;;5.53;4.38;;;5.40;99.00;;;;;;5066706;28;20044;-34
2021/03/17 02:58:50;;;;;;;4.85;4.45;;;5.40;99.00;;;;;;5066855;28;20109;-34
2021/03/17 03:01:17;;;;;;;5.07;4.57;;;5.40;99.00;;;;;;5066101;28;20043;-37
2021/03/17 03:03:44;;;;;;;5.55;5.05;;;5.40;99.10;;;;;;5065932;28;20040;-38
2021/03/17 03:06:11;;;;;;;5.18;4.68;;;5.40;99.30;;;;;;5066555;28;20036;-37
2021/03/17 03:08:39;;;;;;;5.60;5.10;;;5.40;99.40;;;;;;5065399;28;20039;-38
2021/03/17 03:11:08;;;;;;;5.25;4.72;;;5.40;99.60;;;;;;5066073;28;20043;-38
2021/03/17 03:13:36;;;;;;;4.70;4.30;;;5.40;99.60;;;;;;5066201;28;20410;-38
2021/03/17 03:16:03;;;;;;;5.10;4.60;;;5.40;99.50;;;;;;5065969;28;20115;-33
2021/03/17 03:18:33;;;;;;;5.50;5.00;;;5.40;99.50;;;;;;5066323;28;20124;-38
2021/03/17 03:21:01;;;;;;;5.38;4.85;;;5.40;99.60;;;;;;5066159;28;20486;-38
2021/03/17 03:23:27;;;;;;;5.63;4.63;;;5.40;99.50;;;;;;5065678;28;20215;-38
2021/03/17 03:25:54;;;;;;;4.63;4.22;;;5.50;99.60;;;;;;5065716;28;20068;-36
2021/03/17 03:28:20;;;;;;;5.03;4.50;;;5.40;99.50;;;;;;5065598;28;20036;-35
2021/03/17 03:30:55;;;;;;;5.47;4.38;;;5.50;99.60;;;;;;5065999;28;20120;-38
2021/03/17 03:33:21;;;;;;;3.95;3.65;;;5.50;99.70;;;;;;5065674;28;20032;-36
2021/03/17 03:35:48;;;;;;;4.63;4.20;;;5.50;99.60;;;;;;5065566;28;20051;-36
2021/03/17 03:38:14;;;;;;;5.72;5.03;;;5.50;99.70;;;;;;5065552;28;20020;-34
2021/03/17 03:40:41;;;;;;;5.15;4.65;;;5.50;99.70;;;;;;5065697;28;20337;-38
2021/03/17 03:43:08;;;;;;;4.30;3.90;;;5.50;99.70;;;;;;5065135;28;20032;-38
2021/03/17 03:45:34;;;;;;;5.30;4.80;;;5.50;99.60;;;;;;5065598;28;20044;-36
2021/03/17 03:48:02;;;;;;;4.90;4.40;;;5.50;99.70;;;;;;5066215;28;20061;-38
2021/03/17 03:50:29;;;;;;;5.20;4.70;;;5.50;99.70;;;;;;5065063;28;20028;-38
2021/03/17 03:53:03;;;;;;;4.63;4.22;;;5.50;99.90;;;;;;5065393;28;20051;-34
2021/03/17 03:55:39;;;;;;;4.60;4.20;;;5.50;99.90;;;;;;5065787;28;20040;-37
2021/03/17 03:58:08;;;;;;;5.22;4.72;;;5.50;99.80;;;;;;5064931;28;20099;-38
2021/03/17 04:00:38;;;;;;;5.00;4.60;;;5.60;99.80;;;;;;5064640;28;20029;-35
2021/03/17 04:03:07;;;;;;;5.82;4.97;;;5.60;99.70;;;;;;5065750;28;20032;-38
2021/03/17 04:05:36;;;;;;;6.57;4.50;;;5.60;99.70;;;;;;5064877;28;20041;-37
2021/03/17 04:08:07;;;;;;;4.85;4.45;;;5.60;99.70;;;;;;5065338;28;20137;-39
2021/03/17 04:10:36;;;;;;;5.47;4.63;;;5.60;99.70;;;;;;5064544;28;20037;-39
2021/03/17 04:13:05;;;;;;;5.00;4.60;;;5.60;99.70;;;;;;5065423;28;20127;-36
2021/03/17 04:15:34;;;;;;;4.60;4.18;;;5.60;99.70;;;;;;5064610;28;20023;-38
2021/03/17 04:18:12;;;;;;;6.72;5.25;;;5.60;99.70;;;;;;5065091;28;20376;-37
2021/03/17 04:20:42;;;;;;;5.53;4.72;;;5.70;99.90;;;;;;5065219;28;20337;-38
2021/03/17 04:23:10;;;;;;;5.30;4.80;;;5.60;99.70;;;;;;5065123;28;20028;-39
2021/03/17 04:25:37;;;;;;;5.78;5.18;;;5.60;99.80;;;;;;5064225;28;20040;-39
2021/03/17 04:28:05;;;;;;;5.93;4.57;;;5.60;99.70;;;;;;5065267;28;20013;-37
2021/03/17 04:30:31;;;;;;;5.50;4.97;;;5.60;99.80;;;;;;5065270;28;20024;-37
2021/03/17 04:32:58;;;;;;;6.10;4.90;;;5.60;99.70;;;;;;5064002;28;20024;-35
2021/03/17 04:35:27;;;;;;;5.18;4.70;;;5.60;99.80;;;;;;5064689;28;20016;-36
2021/03/17 04:37:56;;;;;;;5.45;4.95;;;5.60;99.80;;;;;;5064691;28;20697;-38
2021/03/17 04:40:23;;;;;;;5.88;4.63;;;5.60;99.90;;;;;;5064354;28;20021;-37
2021/03/17 04:42:49;;;;;;;4.78;4.38;;;5.60;99.90;;;;;;5064778;28;20037;-37
2021/03/17 04:45:16;;;;;;;4.60;4.20;;;5.60;99.80;;;;;;5064731;28;20047;-36
2021/03/17 04:47:44;;;;;;;5.30;4.40;;;5.60;99.80;;;;;;5064599;28;20029;-32
2021/03/17 04:50:16;;;;;;;5.55;4.68;;;5.60;99.80;;;;;;5064544;28;20093;-37
2021/03/17 04:52:44;;;;;;;5.80;5.30;;;5.70;99.90;;;;;;5064000;28;20151;-37
2021/03/17 04:55:11;;;;;;;5.00;4.60;;;5.60;99.90;;;;;;5064982;28;20032;-33
2021/03/17 04:57:40;;;;;;;4.32;4.00;;;5.60;99.80;;;;;;5064186;28;20707;-38
2021/03/17 05:00:10;;;;;;;3.90;3.60;;;5.70;99.80;;;;;;5063804;28;20497;-37
2021/03/17 05:02:38;;;;;;;5.03;4.57;;;5.70;99.90;;;;;;5063913;28;20452;-37
2021/03/17 05:05:10;;;;;;;5.78;4.13;;;5.60;99.90;;;;;;5064470;28;20245;-39
2021/03/17 05:07:38;;;;;;;4.30;3.90;;;5.60;99.90;;;;;;5063782;28;20017;-36
2021/03/17 05:10:06;;;;;;;6.65;3.90;;;5.60;99.90;;;;;;5064655;28;20033;-39
2021/03/17 05:12:32;;;;;;;4.45;4.05;;;5.70;99.90;;;;;;5064475;28;20024;-39
2021/03/17 05:14:59;;;;;;;5.88;4.25;;;5.70;99.90;;;;;;5064444;28;20518;-36
2021/03/17 05:17:24;;;;;;;8.25;4.10;;;5.60;99.90;;;;;;5064083;28;20111;-35
2021/03/17 05:19:50;;;;;;;4.13;3.83;;;5.60;99.90;;;;;;5064807;28;20111;-37
2021/03/17 05:22:16;;;;;;;4.88;4.32;;;5.60;99.90;;;;;;5063765;28;20087;-38
2021/03/17 05:24:42;;;;;;;6.15;3.65;;;5.60;99.90;;;;;;5064048;28;20174;-37
2021/03/17 05:27:20;;;;;;;5.07;3.53;;;5.70;99.90;;;;;;5064512;28;20711;-38
2021/03/17 05:29:52;;;;;;;3.45;3.15;;;5.70;99.90;;;;;;5064446;28;20096;-38
2021/03/17 05:32:18;;;;;;;3.20;3.00;;;5.70;99.90;;;;;;5064432;28;20111;-36
2021/03/17 05:35:01;;;;;;;3.53;3.00;;;5.70;99.80;;;;;;5064090;28;20021;-39
2021/03/17 05:37:28;;;;;;;5.55;3.65;;;5.70;99.80;;;;;;5064055;28;20059;-33
2021/03/17 05:39:54;;;;;;;3.75;3.42;;;5.70;99.70;;;;;;5064490;28;20044;-38
2021/03/17 05:42:21;;;;;;;3.83;3.42;;;5.70;99.70;;;;;;5064080;28;20029;-38
2021/03/17 05:44:47;;;;;;;5.55;3.20;;;5.70;99.70;;;;;;5065880;28;20043;-38
2021/03/17 05:47:13;;;;;;;3.38;2.72;;;5.60;99.60;;;;;;5068319;28;20065;-40
2021/03/17 05:49:39;;;;;;;4.07;3.67;;;5.60;99.60;;;;;;5067530;28;20344;-36
2021/03/17 05:52:11;;;;;;;4.75;3.63;;;5.60;99.60;;;;;;5068699;28;20017;-38
2021/03/17 05:54:36;;;;;;;6.05;4.22;;;5.60;99.60;;;;;;5066879;28;20141;-37
2021/03/17 05:57:03;;;;;;;6.85;4.30;;;5.60;99.60;;;;;;5067828;28;20028;-37
2021/03/17 05:59:30;;;;;;;11.00;4.20;;;5.60;99.60;;;;;;5067864;28;20033;-34
2021/03/17 06:01:56;;;;;;;4.72;3.90;;;5.60;99.60;;;;;;5068649;28;20045;-37
2021/03/17 06:04:27;;;;;;;5.47;3.72;;;5.60;99.60;;;;;;5067342;28;20582;-36
2021/03/17 06:06:57;;;;;;;3.83;3.42;;;5.60;99.60;;;;;;5068707;28;20029;-37
2021/03/17 06:09:24;;;;;;;3.75;3.33;;;5.60;99.60;;;;;;5067906;28;20372;-36
2021/03/17 06:11:51;;;;;;;4.97;3.42;;;5.60;99.60;;;;;;5067440;28;20032;-40
2021/03/17 06:14:20;;;;;;;4.40;3.53;;;5.60;99.60;;;;;;5068287;28;20059;-38
2021/03/17 06:16:48;;;;;;;4.00;3.58;;;5.60;99.60;;;;;;5067918;28;20023;-38
2021/03/17 06:19:14;;;;;;;4.35;3.65;;;5.60;99.60;;;;;;5068102;28;20096;-39
2021/03/17 06:21:41;;;;;;;5.88;3.70;;;5.60;99.90;;;;;;5067903;28;20021;-39
2021/03/17 06:24:07;;;;;;;4.18;3.67;;;5.60;99.60;;;;;;5066775;28;20036;-36
2021/03/17 06:26:38;;;;;;;5.65;3.70;;;5.60;99.50;;;;;;5067861;28;20048;-38
2021/03/17 06:29:09;;;;;;;5.13;3.97;;;5.70;99.50;;;;;;5067701;28;20396;-39
2021/03/17 06:31:35;;;;;;;5.00;4.00;;;5.70;99.50;;;;;;5067211;28;20222;-37
2021/03/17 06:34:01;;;;;;;9.68;3.90;;;5.70;99.50;;;;;;5068070;28;20100;-39
2021/03/17 06:36:27;;;;;;;4.30;3.33;;;5.80;99.40;;;;;;5067688;28;20016;-38
2021/03/17 06:39:09;;;;;;;3.95;3.47;;;5.80;99.70;;;;;;5066859;28;20044;-37
2021/03/17 06:41:53;;;;;;;5.03;3.67;;;5.80;99.40;;;;;;5067642;28;20640;-35
2021/03/17 06:44:24;;;;;;;5.90;3.88;;;5.80;99.30;;;;;;5067588;28;20084;-37
2021/03/17 06:47:20;;;;;;;4.03;2.85;;;5.90;99.20;;;;;;5066894;28;20032;-36
2021/03/17 06:49:50;;;;;;;6.05;3.97;;;5.90;99.20;;;;;;5067322;28;20020;-36
2021/03/17 06:52:32;;;;;;;3.80;3.10;;;5.90;99.10;;;;;;5066817;28;20319;-38
2021/03/17 06:55:11;;;;;;;3.83;3.13;;;5.90;99.00;;;;;;5064778;28;20047;-37
2021/03/17 06:57:40;;;;;;;3.97;3.10;;;5.90;99.00;;;;;;5067126;28;20071;-38
2021/03/17 07:00:22;;;;;;;5.07;3.08;;;5.90;99.00;;;;;;5063058;28;20020;-38
2021/03/17 07:02:54;;;;;;;5.20;3.40;;;6.00;98.90;;;;;;5065976;28;20120;-35
2021/03/17 07:05:20;;;;;;;5.10;3.47;;;5.90;98.80;;;;;;5065791;28;20067;-39
2021/03/17 07:07:48;;;;;;;4.70;3.20;;;5.90;98.80;;;;;;5065236;28;20377;-37
2021/03/17 07:10:13;;;;;;;7.82;3.30;;;5.90;98.80;;;;;;5065742;28;20479;-38
2021/03/17 07:12:39;;;;;;;3.67;2.83;;;5.90;98.70;;;;;;5066257;28;20021;-38
2021/03/17 07:15:12;;;;;;;6.53;3.33;;;5.90;98.80;;;;;;5064980;28;20052;-36
2021/03/17 07:17:37;;;;;;;4.07;3.03;;;6.00;98.80;;;;;;5063825;28;20028;-37
2021/03/17 07:20:06;;;;;;;3.65;2.88;;;6.00;98.70;;;;;;5065322;28;20028;-38
2021/03/17 07:22:33;;;;;;;3.15;2.85;;;6.10;98.60;;;;;;5065895;28;20025;-37
2021/03/17 07:25:04;;;;;;;2.83;2.53;;;6.10;98.40;;;;;;5066938;28;20093;-38
2021/03/17 07:27:32;;;;;;;2.97;2.58;;;6.10;98.30;;;;;;5065001;28;20012;-38
2021/03/17 07:29:58;;;;;;;6.00;2.80;;;6.10;98.30;;;;;;5066742;28;20337;-38
2021/03/17 07:32:25;;;;;;;3.38;2.63;;;6.10;98.10;;;;;;5066478;28;20044;-36
2021/03/17 07:34:53;;;;;;;3.75;2.25;;;6.20;98.10;;;;;;5046185;28;20033;-33
2021/03/17 07:37:25;;;;;;;3.08;2.50;;;6.20;98.20;;;;;;5060557;28;20444;-36
2021/03/17 07:39:53;;;;;;;4.80;2.90;;;6.30;98.10;;;;;;5066705;28;20032;-34
2021/03/17 07:42:20;;;;;;;2.97;2.40;;;6.40;97.90;;;;;;5065170;28;20558;-38
2021/03/17 07:44:46;;;;;;;6.40;2.30;;;6.50;97.60;;;;;;5065529;28;20047;-38
2021/03/17 07:47:12;;;;;;;7.63;1.63;;;6.50;97.30;;;;;;5066032;28;20024;-39
2021/03/17 07:49:44;;;;;;;3.72;1.75;;;6.40;96.90;;;;;;5065597;28;20024;-39
2021/03/17 07:52:22;;;;;;;2.80;2.05;;;6.40;97.00;;;;;;5063935;28;20043;-38
2021/03/17 07:54:50;;;;;;;3.60;1.70;;;6.40;96.90;;;;;;5063398;28;20037;-36
2021/03/17 07:57:16;;;;;;;3.85;1.50;;;6.40;96.90;;;;;;5064965;28;20040;-39
2021/03/17 07:59:42;;;;;;;3.25;1.27;;;6.40;96.80;;;;;;5066337;28;20108;-38
2021/03/17 08:02:16;;;;;;;3.65;1.42;;;6.40;96.60;;;;;;5065597;28;20120;-38
2021/03/17 08:04:42;;;;;;;4.28;1.60;;;6.40;96.60;;;;;;5066005;28;20041;-39
2021/03/17 08:07:07;;;;;;;3.08;1.23;;;6.50;96.70;;;;;;5065740;28;20020;-38
2021/03/17 08:09:33;;;;;;;3.70;1.60;;;6.50;96.50;;;;;;5064982;28;20054;-37
2021/03/17 08:12:02;;;;;;;3.20;1.70;;;6.60;96.50;;;;;;5066302;28;20036;-38
2021/03/17 08:14:29;;;;;;;2.72;1.88;;;6.70;96.60;;;;;;5062783;28;20033;-38
2021/03/17 08:16:58;;;;;;;3.90;1.70;;;6.70;96.20;;;;;;5064737;28;20441;-37
2021/03/17 08:19:30;;;;;;;3.65;1.35;;;6.80;96.10;;;;;;5065386;28;20068;-37
2021/03/17 08:22:00;;;;;;;4.22;1.38;;;6.80;95.70;;;;;;5065791;28;20521;-38
2021/03/17 08:24:38;;;;;;;5.30;1.45;;;6.80;95.40;;;;;;5064970;28;20039;-39
2021/03/17 08:27:07;;;;;;;3.72;1.70;;;6.70;95.20;;;;;;5065090;28;20044;-36
2021/03/17 08:29:45;;;;;;;2.10;1.13;;;6.60;95.20;;;;;;5065343;28;20150;-35
2021/03/17 08:32:13;;;;;;;4.22;1.65;;;6.40;95.20;;;;;;5065335;28;20035;-38
2021/03/17 08:34:39;;;;;;;4.20;1.65;;;6.30;95.60;;;;;;5065005;28;20333;-36
2021/03/17 08:37:07;;;;;;;2.47;1.30;;;6.20;95.40;;;;;;5065478;28;20428;-36
2021/03/17 08:39:32;;;;;;;3.10;1.30;;;6.20;95.50;;;;;;5064525;28;20028;-37
2021/03/17 08:41:59;;;;;;;6.63;1.52;;;6.20;95.20;;;;;;5065669;28;20719;-37
2021/03/17 08:44:25;;;;;;;7.72;1.65;;;6.20;95.10;;;;;;5064788;28;20412;-39
2021/03/17 08:46:53;;;;;;;5.18;1.92;;;6.20;95.10;;;;;;5064574;28;20020;-35
2021/03/17 08:49:36;;;;;;;6.55;1.70;;;6.30;94.60;;;;;;5064743;28;20035;-37
2021/03/17 08:52:03;;;;;;;;;;;6.40;94.70;;;;;;5064726;28;20032;-38
2021/03/17 08:54:34;;;;;;;8.48;2.08;;;6.60;94.60;;;;;;5064832;28;20566;-38
2021/03/17 08:57:08;;;;;;;7.07;2.20;;;6.70;94.40;;;;;;5065268;28;20459;-35
2021/03/17 08:59:40;;;;;;;4.72;1.77;;;6.90;94.40;;;;;;5064140;28;20025;-37
2021/03/17 09:02:39;;;;;;;7.75;2.63;;;6.90;93.80;;;;;;5062902;28;20093;-38
2021/03/17 09:05:16;;;;;;;6.32;2.10;;;6.90;93.90;;;;;;5057050;28;20497;-38
2021/03/17 09:08:09;;;;;;;4.07;1.40;;;6.80;94.20;;;;;;5063426;28;20040;-37
2021/03/17 09:10:43;;;;;;;3.65;1.73;;;6.70;94.60;;;;;;5062719;28;20629;-37
2021/03/17 09:13:09;;;;;;;4.60;1.73;;;6.70;94.80;;;;;;5062050;28;20131;-36
2021/03/17 09:15:50;;;;;;;5.20;1.70;;;6.70;94.60;;;;;;5061746;28;20116;-36
2021/03/17 09:18:20;;;;;;;4.28;1.75;;;6.60;94.40;;;;;;5063485;28;20037;-33
2021/03/17 09:20:50;;;;;;;5.65;1.70;;;6.60;94.50;;;;;;5062158;28;20028;-38
2021/03/17 09:23:15;;;;;;;2.38;1.15;;;6.60;94.70;;;;;;5064347;28;20474;-35
2021/03/17 09:25:43;;;;;;;4.78;1.80;;;6.60;94.90;;;;;;5064589;28;20107;-38
2021/03/17 09:28:30;;;;;;;5.50;2.05;;;6.80;94.80;;;;;;5064372;28;20054;-39
2021/03/17 09:31:06;;;;;;;5.35;2.00;;;6.80;94.80;;;;;;5064832;28;20040;-36
2021/03/17 09:33:38;;;;;;;4.45;1.77;;;6.90;95.00;;;;;;5064192;28;20044;-37
2021/03/17 09:36:07;;;;;;;4.53;1.70;;;6.90;95.10;;;;;;5064140;28;20082;-36
2021/03/17 09:38:41;;;;;;;3.58;1.58;;;6.90;95.20;;;;;;5064531;28;20068;-32
2021/03/17 09:41:11;;;;;;;8.35;1.83;;;6.90;95.10;;;;;;5063681;28;20020;-36
2021/03/17 09:43:49;;;;;;;3.28;1.33;;;6.80;95.10;;;;;;5064446;28;20111;-37
2021/03/17 09:46:23;;;;;;;5.20;1.48;;;6.70;94.90;;;;;;5058945;28;20028;-34
2021/03/17 09:48:51;;;;;;;5.50;1.52;;;6.60;94.60;;;;;;5063213;28;20028;-39
2021/03/17 09:51:21;;;;;;;5.32;1.58;;;6.60;94.30;;;;;;5063964;28;20471;-37
2021/03/17 09:53:47;;;;;;;5.68;1.95;;;6.60;93.50;;;;;;5064302;28;20151;-36
2021/03/17 09:56:14;;;;;;;9.05;2.35;;;6.60;93.20;;;;;;5063494;28;20035;-36
2021/03/17 09:58:40;;;;;;;6.78;1.50;;;6.70;93.00;;;;;;5064219;28;20033;-39
2021/03/17 10:01:12;;;;;;;5.82;1.40;;;6.80;92.60;;;;;;5064753;28;20019;-37
2021/03/17 10:03:44;;;;;;;6.90;1.58;;;6.90;92.00;;;;;;5063296;28;20055;-37
2021/03/17 10:06:10;;;;;;;4.78;1.50;;;7.10;91.40;;;;;;5064218;28;20016;-36
2021/03/17 10:08:38;;;;;;;3.65;1.63;;;7.20;91.00;;;;;;5064346;28;20396;-37
2021/03/17 10:11:11;;;;;;;5.78;1.35;;;7.20;90.60;;;;;;5063589;28;20861;-33
2021/03/17 10:13:40;;;;;;;8.10;1.60;;;7.30;90.90;;;;;;5064034;28;20029;-37
2021/03/17 10:16:07;;;;;;;7.43;1.67;;;7.30;91.10;;;;;;5064200;28;20032;-38
2021/03/17 10:18:33;;;;;;;5.20;1.40;;;7.40;90.80;;;;;;5063943;28;20157;-39
2021/03/17 10:20:59;;;;;;;10.50;1.92;;;7.50;91.10;;;;;;5064229;28;20115;-36
2021/03/17 10:23:24;;;;;;;5.22;1.30;;;7.60;90.60;;;;;;5063462;28;20029;-39
2021/03/17 10:25:50;;;;;;;5.22;1.40;;;7.70;90.50;;;;;;5064429;28;20033;-37
2021/03/17 10:28:17;;;;;;;3.60;1.08;;;7.80;90.00;;;;;;5064183;28;20503;-40
2021/03/17 10:30:46;;;;;;;3.53;1.30;;;7.90;89.10;;;;;;5065421;28;20036;-38
2021/03/17 10:33:22;;;;;;;5.05;1.42;;;7.90;89.30;;;;;;5067693;28;20025;-40
2021/03/17 10:35:48;;;;;;;3.20;1.40;;;7.90;88.20;;;;;;5067697;28;20024;-37
2021/03/17 10:38:14;;;;;;;5.93;1.55;;;8.00;86.90;;;;;;5067487;28;20024;-38
2021/03/17 10:40:43;;;;;;;4.28;1.40;;;8.00;87.30;;;;;;5068145;28;20028;-38
2021/03/17 10:43:13;;;;;;;6.03;1.73;;;8.00;86.00;;;;;;5067310;28;20025;-39
2021/03/17 10:45:52;;;;;;;6.57;1.50;;;8.00;87.30;;;;;;5067217;28;20040;-39
2021/03/17 10:48:20;;;;;;;3.67;1.55;;;8.10;87.50;;;;;;5067537;28;20026;-38
2021/03/17 10:50:46;;;;;;;5.53;1.58;;;8.10;87.70;;;;;;5067311;28;20070;-37
2021/03/17 10:53:23;;;;;;;10.20;1.85;;;8.20;86.60;;;;;;5064927;28;20056;-37
2021/03/17 10:55:50;;;;;;;5.55;1.60;;;8.20;86.70;;;;;;5065394;28;20024;-37
2021/03/17 10:58:18;;;;;;;7.97;1.60;;;8.20;87.00;;;;;;5065678;28;20021;-38
2021/03/17 11:00:46;;;;;;;7.68;1.75;;;8.20;85.40;;;;;;5064102;28;20021;-38
2021/03/17 11:03:31;;;;;;;5.75;1.50;;;8.20;85.40;;;;;;5065471;28;20497;-37
2021/03/17 11:06:16;;;;;;;9.38;1.42;;;8.20;85.50;;;;;;5066043;28;20020;-34
2021/03/17 11:08:43;;;;;;;4.97;1.38;;;8.20;84.70;;;;;;5064823;28;20060;-36
2021/03/17 11:11:10;;;;;;;7.68;1.85;;;8.00;85.80;;;;;;5066659;28;20074;-37
2021/03/17 11:13:41;;;;;;;8.45;1.60;;;7.90;86.70;;;;;;5065572;28;20024;-38
2021/03/17 11:16:12;;;;;;;5.95;1.40;;;7.90;85.80;;;;;;5066114;28;20103;-36
2021/03/17 11:18:47;;;;;;;5.68;1.40;;;7.80;86.90;;;;;;5066300;28;20052;-37
2021/03/17 11:21:34;;;;;;;8.75;1.52;;;7.70;86.10;;;;;;5055756;28;20648;-37
2021/03/17 11:24:18;;;;;;;4.35;1.20;;;7.60;86.00;;;;;;5066167;28;20385;-35
2021/03/17 11:26:45;;;;;;;10.38;1.20;;;7.60;86.40;;;;;;5066226;28;20220;-37
2021/03/17 11:29:14;;;;;;;7.25;1.23;;;7.70;87.30;;;;;;5066317;28;20036;-37
2021/03/17 11:31:40;;;;;;;5.72;1.35;;;7.80;87.70;;;;;;5065696;28;20380;-36
2021/03/17 11:34:08;;;;;;;5.07;1.45;;;8.00;87.90;;;;;;5056106;28;20432;-36
2021/03/17 11:36:34;;;;;;;4.78;1.30;;;8.10;87.20;;;;;;5067965;28;20032;-38
2021/03/17 11:39:07;;;;;;;3.42;1.05;;;8.30;87.40;;;;;;5065073;28;20042;-37
2021/03/17 11:41:34;;;;;;;5.63;1.20;;;8.50;86.00;;;;;;5063757;28;20033;-37
2021/03/17 11:43:59;;;;;;;5.32;1.20;;;8.60;86.70;;;;;;5064872;28;20071;-38
2021/03/17 11:46:25;;;;;;;4.82;1.63;;;8.70;86.10;;;;;;5064931;28;20020;-38
2021/03/17 11:48:51;;;;;;;3.60;1.30;;;8.60;86.30;;;;;;5064490;28;20044;-38
2021/03/17 11:51:18;;;;;;;5.85;1.40;;;8.40;87.70;;;;;;5064641;28;20067;-36
2021/03/17 11:53:47;;;;;;;8.30;1.48;;;8.20;89.20;;;;;;5065952;28;20082;-37
2021/03/17 11:56:14;;;;;;;6.07;1.48;;;8.00;90.20;;;;;;5065003;28;20116;-37
2021/03/17 11:58:40;;;;;;;7.40;1.60;;;7.90;90.70;;;;;;5045878;28;20025;-38
2021/03/17 12:01:06;;;;;;;6.50;1.45;;;7.80;91.00;;;;;;5060155;28;20436;-37
2021/03/17 12:03:32;;;;;;;9.38;1.42;;;7.80;91.50;;;;;;5065450;28;20070;-37
2021/03/17 12:06:08;;;;;;;5.18;1.50;;;7.80;91.50;;;;;;5064574;28;20054;-37
2021/03/17 12:08:35;;;;;;;8.02;1.20;;;7.90;91.40;;;;;;5065292;28;20387;-35
2021/03/17 12:11:01;;;;;;;7.13;1.40;;;7.90;91.20;;;;;;5065821;28;20017;-35
2021/03/17 12:13:26;;;;;;;10.07;1.60;;;7.90;91.10;;;;;;5065311;28;20028;-37
2021/03/17 12:15:52;;;;;;;6.32;1.35;;;7.80;91.20;;;;;;5065260;28;20066;-38
2021/03/17 12:18:18;;;;;;;4.30;1.73;;;7.80;91.60;;;;;;5065578;28;20075;-37
2021/03/17 12:20:45;;;;;;;4.55;1.88;;;7.70;92.00;;;;;;5065257;28;20111;-35
2021/03/17 12:23:11;;;;;;;5.63;1.50;;;7.60;92.10;;;;;;5065264;28;20017;-39
2021/03/17 12:25:37;;;;;;;4.85;1.25;;;7.70;92.20;;;;;;5065806;28;20037;-37
2021/03/17 12:28:03;;;;;;;3.30;1.02;;;7.70;92.20;;;;;;5065353;28;20043;-38
2021/03/17 12:30:29;;;;;;;5.18;1.40;;;7.80;92.20;;;;;;5065528;28;20456;-36
2021/03/17 12:32:55;;;;;;;2.10;1.15;;;7.80;92.10;;;;;;5065355;28;20093;-37
2021/03/17 12:35:23;;;;;;;3.60;1.20;;;7.80;92.30;;;;;;5065781;28;20106;-37
2021/03/17 12:37:51;;;;;;;5.50;1.35;;;7.80;92.30;;;;;;5065702;28;20024;-39
2021/03/17 12:40:19;;;;;;;3.60;1.33;;;7.90;92.30;;;;;;5065456;28;20032;-39
2021/03/17 12:42:46;;;;;;;5.32;1.27;;;8.10;92.30;;;;;;5065070;28;20093;-38
2021/03/17 12:45:14;;;;;;;4.22;1.30;;;8.10;92.10;;;;;;5064553;28;20032;-34
2021/03/17 12:47:41;;;;;;;5.13;1.13;;;8.10;91.80;;;;;;5065619;28;20017;-39
2021/03/17 12:50:12;;;;;;;2.17;0.80;;;8.00;91.50;;;;;;5065234;28;20028;-34
2021/03/17 12:52:38;;;;;;;1.70;0.90;;;7.90;91.80;;;;;;5064476;28;20040;-38
2021/03/17 12:55:05;;;;;;;1.85;1.20;;;7.80;91.90;;;;;;5064170;28;20044;-37
2021/03/17 12:57:31;;;;;;;3.20;1.17;;;7.60;92.10;;;;;;5064541;28;20030;-37
2021/03/17 12:59:58;;;;;;;1.58;0.80;;;7.50;92.60;;;;;;5064483;28;20112;-37
2021/03/17 13:02:25;;;;;;;6.15;1.15;;;7.40;92.90;;;;;;5065207;28;20165;-34
2021/03/17 13:04:51;;;;;;;3.90;0.98;;;7.30;93.40;;;;;;5064284;28;20031;-38
2021/03/17 13:07:20;;;;;;;1.38;0.98;;;7.30;93.80;;;;;;5064575;28;20012;-39
2021/03/17 13:09:46;;;;;;;2.53;1.05;;;7.40;93.90;;;;;;5054312;28;20088;-37